Terminal Aerodrome Forecast
Issued by NWS

Home | Current Version | Previous Version | Text Only | Print | Product List | Glossary On
Versions: 1 2 3 4 5 6 7 8 9 10 11 12 13 14 15
030
FTUS42 TJSJ 261813 AAA
TAFISX
TAF AMD
TISX 261813Z 2618/2718 09010KT P6SM VCSH FEW030 SCT080
     FM262330 VRB05KT P6SM FEW030 SCT060
     FM271400 12010KT P6SM SCT030 BKN070=

USA.gov is the U.S. government's official web portal to all federal, state and local government web resources and services.